createdAt,value
2018-10-19T00:01:55.765Z,29.70
2018-10-19T00:04:24.190Z,29.80
2018-10-19T00:06:52.616Z,29.80
2018-10-19T00:09:21.034Z,29.80
2018-10-19T00:11:49.422Z,29.80
2018-10-19T00:14:17.772Z,29.80
2018-10-19T00:16:46.084Z,29.80
2018-10-19T00:19:14.438Z,29.80
2018-10-19T00:21:42.736Z,29.80
2018-10-19T00:24:11.118Z,29.80
2018-10-19T00:26:39.454Z,29.80
2018-10-19T00:29:07.743Z,29.80
2018-10-19T00:31:36.042Z,29.80
2018-10-19T00:34:04.502Z,29.80
2018-10-19T00:36:32.923Z,29.80
2018-10-19T00:39:01.338Z,29.80
2018-10-19T00:41:29.746Z,29.80
2018-10-19T00:43:58.095Z,29.80
2018-10-19T00:46:26.388Z,29.80
2018-10-19T00:48:54.724Z,29.80
2018-10-19T00:51:23.112Z,29.80
2018-10-19T00:53:51.366Z,29.80
2018-10-19T00:56:19.712Z,29.80
2018-10-19T00:58:48.042Z,29.80
2018-10-19T01:01:16.332Z,29.80
2018-10-19T01:03:44.670Z,29.80
2018-10-19T01:06:13.096Z,29.90
2018-10-19T01:08:41.417Z,29.80
2018-10-19T01:11:09.889Z,30.30
2018-10-19T01:13:38.140Z,29.80
2018-10-19T01:16:06.428Z,30.30
2018-10-19T01:18:34.876Z,29.80
2018-10-19T01:21:03.354Z,29.80
2018-10-19T01:23:31.820Z,29.80
2018-10-19T01:26:00.098Z,29.80
2018-10-19T01:28:28.417Z,29.80
2018-10-19T01:30:56.772Z,29.80
2018-10-19T01:33:25.124Z,29.80
2018-10-19T01:35:53.540Z,29.80
2018-10-19T01:38:21.876Z,29.80
2018-10-19T01:40:50.246Z,29.80
2018-10-19T01:43:18.540Z,29.80
2018-10-19T01:45:52.362Z,29.80
2018-10-19T01:48:20.776Z,29.80
2018-10-19T01:50:49.300Z,29.80
2018-10-19T01:53:17.683Z,29.80
2018-10-19T01:55:46.182Z,29.80
2018-10-19T01:58:14.708Z,29.80
2018-10-19T02:00:43.095Z,29.80
2018-10-19T02:03:11.620Z,29.80
2018-10-19T02:05:40.259Z,29.80
2018-10-19T02:08:10.351Z,29.80
2018-10-19T02:10:38.942Z,29.80
2018-10-19T02:13:07.602Z,29.80
2018-10-19T02:15:36.085Z,29.80
2018-10-19T02:18:04.720Z,29.80
2018-10-19T02:20:33.051Z,29.90
2018-10-19T02:23:01.527Z,29.80
2018-10-19T02:25:29.870Z,29.80
2018-10-19T02:27:58.862Z,29.80
2018-10-19T02:30:27.154Z,29.80
2018-10-19T02:32:55.612Z,29.80
2018-10-19T02:35:23.894Z,29.80
2018-10-19T02:37:52.224Z,29.80
2018-10-19T02:40:20.627Z,29.80
2018-10-19T02:42:48.998Z,29.80
2018-10-19T02:45:17.513Z,29.80
2018-10-19T02:47:45.792Z,29.80
2018-10-19T02:50:14.231Z,29.80
2018-10-19T02:52:42.546Z,29.80
2018-10-19T02:55:10.978Z,29.80
2018-10-19T02:57:39.429Z,29.80
2018-10-19T03:00:09.853Z,29.80
2018-10-19T03:02:38.193Z,29.90
2018-10-19T03:05:07.358Z,29.80
2018-10-19T03:07:35.659Z,29.80
2018-10-19T03:10:04.409Z,29.80
2018-10-19T03:12:32.723Z,29.80
2018-10-19T03:15:01.148Z,29.80
2018-10-19T03:17:29.485Z,29.80
2018-10-19T03:19:57.965Z,29.80
2018-10-19T03:22:26.299Z,29.80
2018-10-19T03:24:54.667Z,29.80
2018-10-19T03:27:22.943Z,29.80
2018-10-19T03:29:51.365Z,29.80
2018-10-19T03:32:19.650Z,29.80
2018-10-19T03:34:48.085Z,29.80
2018-10-19T03:37:16.503Z,29.80
2018-10-19T03:39:44.907Z,29.80
2018-10-19T03:42:13.226Z,29.80
2018-10-19T03:44:41.628Z,29.80
2018-10-19T03:47:10.002Z,29.80
2018-10-19T03:49:38.266Z,29.80
2018-10-19T03:52:06.752Z,29.70
2018-10-19T03:54:35.124Z,29.20
2018-10-19T03:57:04.312Z,29.80
2018-10-19T03:59:32.790Z,29.70
2018-10-19T04:02:01.108Z,29.80
2018-10-19T04:04:29.641Z,29.80
2018-10-19T04:06:58.020Z,29.70
2018-10-19T04:09:26.411Z,29.70
2018-10-19T04:11:54.737Z,29.80
2018-10-19T04:14:23.113Z,29.70
2018-10-19T04:16:51.479Z,29.80
2018-10-19T04:19:19.783Z,29.80
2018-10-19T04:21:48.075Z,29.70
2018-10-19T04:24:16.420Z,29.70
2018-10-19T04:26:44.831Z,29.70
2018-10-19T04:29:13.311Z,29.70
2018-10-19T04:31:41.632Z,29.70
2018-10-19T04:34:10.081Z,29.70
2018-10-19T04:36:38.411Z,29.70
2018-10-19T04:39:08.014Z,29.70
2018-10-19T04:41:36.471Z,29.70
2018-10-19T04:44:04.797Z,29.70
2018-10-19T04:46:33.117Z,29.70
2018-10-19T04:49:01.375Z,29.70
2018-10-19T04:51:29.815Z,29.70
2018-10-19T04:53:58.104Z,29.70
2018-10-19T04:56:26.401Z,29.70
2018-10-19T04:58:54.716Z,29.70
2018-10-19T05:01:23.779Z,29.70
2018-10-19T05:03:52.138Z,29.60
2018-10-19T05:06:20.745Z,29.70
2018-10-19T05:08:49.121Z,29.70
2018-10-19T05:11:17.909Z,29.70
2018-10-19T05:13:46.101Z,29.70
2018-10-19T05:16:14.462Z,29.70
2018-10-19T05:18:42.735Z,29.70
2018-10-19T05:21:12.223Z,29.70
2018-10-19T05:23:40.525Z,29.80
2018-10-19T05:26:09.136Z,29.80
2018-10-19T05:28:37.501Z,29.80
2018-10-19T05:31:05.899Z,30.00
2018-10-19T05:33:34.214Z,29.90
2018-10-19T05:36:02.692Z,30.00
2018-10-19T05:38:31.073Z,30.00
2018-10-19T05:40:59.635Z,31.60
2018-10-19T05:43:27.996Z,31.30
2018-10-19T05:45:57.535Z,31.90
2018-10-19T05:48:26.029Z,31.40
2018-10-19T05:50:54.545Z,30.90
2018-10-19T05:53:22.817Z,30.70
2018-10-19T05:55:51.197Z,30.80
2018-10-19T05:58:19.543Z,30.70
2018-10-19T06:00:47.983Z,30.70
2018-10-19T06:03:16.371Z,30.50
2018-10-19T06:05:44.709Z,30.30
2018-10-19T06:08:13.240Z,30.00
2018-10-19T06:10:41.582Z,30.10
2018-10-19T06:13:09.877Z,31.50
2018-10-19T06:15:38.183Z,32.10
2018-10-19T06:18:06.526Z,32.40
2018-10-19T06:20:34.839Z,30.10
2018-10-19T06:23:03.194Z,30.00
2018-10-19T06:25:31.459Z,30.00
2018-10-19T06:27:59.871Z,30.00
2018-10-19T06:30:28.227Z,30.00
2018-10-19T06:32:56.511Z,30.00
2018-10-19T06:35:25.165Z,29.90
2018-10-19T06:37:53.494Z,29.50
2018-10-19T06:40:21.817Z,29.90
2018-10-19T06:42:50.279Z,29.40
2018-10-19T06:45:18.569Z,29.90
2018-10-19T06:47:46.904Z,29.00
2018-10-19T06:50:15.310Z,29.40
2018-10-19T06:52:43.543Z,29.10
2018-10-19T06:55:15.921Z,29.10
2018-10-19T06:57:44.587Z,28.70
2018-10-19T07:00:13.909Z,29.10
2018-10-19T07:02:42.294Z,29.80
2018-10-19T07:05:10.762Z,29.80
2018-10-19T07:07:38.983Z,29.80
2018-10-19T07:10:08.345Z,29.80
2018-10-19T07:12:36.668Z,29.80
2018-10-19T07:15:06.379Z,29.80
2018-10-19T07:17:34.626Z,30.30
2018-10-19T07:20:03.109Z,29.80
2018-10-19T07:22:31.678Z,29.80
2018-10-19T07:25:00.054Z,29.80
2018-10-19T07:27:28.380Z,29.80
2018-10-19T07:29:56.782Z,29.80
2018-10-19T07:32:25.074Z,29.80
2018-10-19T07:34:53.532Z,29.80
2018-10-19T07:37:21.858Z,29.80
2018-10-19T07:39:50.174Z,29.80
2018-10-19T07:42:18.868Z,29.80
2018-10-19T07:44:47.057Z,29.90
2018-10-19T07:47:15.522Z,29.90
2018-10-19T07:49:43.630Z,29.90
2018-10-19T07:52:11.966Z,29.80
2018-10-19T07:54:40.308Z,29.90
2018-10-19T07:57:08.626Z,29.90
2018-10-19T07:59:37.074Z,29.90
2018-10-19T08:02:06.031Z,29.90
2018-10-19T08:04:34.398Z,29.90
2018-10-19T08:07:02.751Z,29.90
2018-10-19T08:09:31.020Z,29.90
2018-10-19T08:11:59.402Z,29.90
2018-10-19T08:14:28.000Z,29.90
2018-10-19T08:16:56.321Z,29.90
2018-10-19T08:19:24.656Z,29.90
2018-10-19T08:21:53.030Z,29.90
2018-10-19T08:24:21.326Z,30.50
2018-10-19T08:26:49.727Z,30.00
2018-10-19T08:29:18.116Z,29.90
2018-10-19T08:31:46.406Z,29.90
2018-10-19T08:34:14.817Z,29.90
2018-10-19T08:36:43.116Z,29.90
2018-10-19T08:39:11.504Z,29.90
2018-10-19T08:41:39.858Z,29.90
2018-10-19T08:44:08.076Z,29.90
2018-10-19T08:46:38.594Z,29.90
2018-10-19T08:49:08.603Z,29.90
2018-10-19T08:51:37.324Z,29.90
2018-10-19T08:54:06.091Z,30.00
2018-10-19T08:56:34.454Z,29.90
2018-10-19T08:59:02.883Z,29.90
2018-10-19T09:01:31.150Z,29.90
2018-10-19T09:03:59.511Z,29.90
2018-10-19T09:06:27.954Z,29.90
2018-10-19T09:08:56.452Z,29.90
2018-10-19T09:11:25.162Z,29.90
2018-10-19T09:13:53.329Z,30.00
2018-10-19T09:16:21.744Z,29.90
2018-10-19T09:18:50.084Z,30.00
2018-10-19T09:21:18.404Z,29.90
2018-10-19T09:23:46.758Z,29.90
2018-10-19T09:26:15.079Z,29.90
2018-10-19T09:28:43.333Z,29.90
2018-10-19T09:31:11.700Z,30.00
2018-10-19T09:33:40.026Z,29.90
2018-10-19T09:36:08.516Z,30.00
2018-10-19T09:38:36.735Z,30.00
2018-10-19T09:41:05.393Z,30.00
2018-10-19T09:43:33.607Z,29.90
2018-10-19T09:46:02.015Z,30.00
2018-10-19T09:48:30.322Z,29.90
2018-10-19T09:50:58.715Z,30.30
2018-10-19T09:53:27.015Z,29.90
2018-10-19T09:55:55.520Z,30.00
2018-10-19T09:58:23.947Z,29.90
2018-10-19T10:00:57.664Z,29.90
2018-10-19T10:03:26.775Z,29.90
2018-10-19T10:05:55.359Z,30.00
2018-10-19T10:08:24.383Z,30.60
2018-10-19T10:10:52.952Z,30.00
2018-10-19T10:13:21.382Z,30.00
2018-10-19T10:15:49.792Z,30.00
2018-10-19T10:18:18.033Z,30.00
2018-10-19T10:20:46.334Z,30.00
2018-10-19T10:23:14.841Z,29.90
2018-10-19T10:25:43.245Z,30.00
2018-10-19T10:28:11.679Z,30.00
2018-10-19T10:30:39.939Z,30.00
2018-10-19T10:33:08.613Z,30.00
2018-10-19T10:35:36.989Z,30.00
2018-10-19T10:38:05.821Z,30.00
2018-10-19T10:40:34.089Z,30.00
2018-10-19T10:43:02.417Z,30.00
2018-10-19T10:45:30.737Z,29.90
2018-10-19T10:47:59.091Z,30.00
2018-10-19T10:50:27.394Z,30.00
2018-10-19T10:52:55.743Z,30.00
2018-10-19T10:55:24.123Z,30.00
2018-10-19T10:57:52.555Z,30.00
2018-10-19T11:00:20.912Z,30.00
2018-10-19T11:02:49.207Z,30.00
2018-10-19T11:05:17.515Z,30.00
2018-10-19T11:07:45.954Z,30.50
2018-10-19T11:10:14.405Z,30.00
2018-10-19T11:12:42.659Z,30.00
2018-10-19T11:15:10.933Z,30.00
2018-10-19T11:17:39.362Z,30.00
2018-10-19T11:20:07.712Z,30.00
2018-10-19T11:22:36.046Z,30.00
2018-10-19T11:25:04.408Z,30.00
2018-10-19T11:27:32.707Z,30.00
2018-10-19T11:30:01.063Z,30.00
2018-10-19T11:32:29.475Z,29.90
2018-10-19T11:34:57.779Z,30.00
2018-10-19T11:37:26.263Z,29.90
2018-10-19T11:40:06.028Z,29.90
2018-10-19T11:42:34.321Z,29.90
2018-10-19T11:45:02.629Z,30.00
2018-10-19T11:47:31.007Z,29.90
2018-10-19T11:49:59.375Z,30.00
2018-10-19T11:52:27.706Z,30.50
2018-10-19T11:54:56.092Z,30.00
2018-10-19T11:57:24.473Z,29.90
2018-10-19T11:59:52.931Z,29.90
2018-10-19T12:02:21.203Z,29.90
2018-10-19T12:04:49.579Z,29.90
2018-10-19T12:07:17.927Z,29.90
2018-10-19T12:09:46.233Z,29.90
2018-10-19T12:12:14.694Z,30.50
2018-10-19T12:14:42.981Z,29.90
2018-10-19T12:17:11.560Z,29.90
2018-10-19T12:19:39.969Z,29.90
2018-10-19T12:22:08.338Z,29.90
2018-10-19T12:24:36.743Z,29.90
2018-10-19T12:27:05.146Z,29.90
2018-10-19T12:29:33.427Z,29.90
2018-10-19T12:32:01.839Z,29.90
2018-10-19T12:34:30.131Z,29.90
2018-10-19T12:36:58.436Z,29.90
2018-10-19T12:39:26.767Z,29.90
2018-10-19T12:41:55.105Z,29.90
2018-10-19T12:44:23.439Z,29.90
2018-10-19T12:47:03.255Z,29.80
2018-10-19T12:49:31.689Z,29.40
2018-10-19T12:52:00.115Z,29.40
2018-10-19T12:54:28.564Z,29.60
2018-10-19T12:56:56.905Z,29.90
2018-10-19T12:59:25.185Z,30.00
2018-10-19T13:01:53.508Z,29.90
2018-10-19T13:04:21.859Z,29.90
2018-10-19T13:06:50.322Z,29.80
2018-10-19T13:09:18.801Z,29.50
2018-10-19T13:11:47.107Z,29.50
2018-10-19T13:14:15.529Z,29.60
2018-10-19T13:16:43.812Z,29.90
2018-10-19T13:19:12.299Z,30.00
2018-10-19T13:21:40.537Z,30.00
2018-10-19T13:24:08.863Z,29.60
2018-10-19T13:26:37.140Z,29.90
2018-10-19T13:29:05.817Z,30.00
2018-10-19T13:31:34.203Z,30.00
2018-10-19T13:34:02.923Z,29.90
2018-10-19T13:36:31.449Z,29.90
2018-10-19T13:38:59.861Z,29.90
2018-10-19T13:41:28.243Z,29.90
2018-10-19T13:43:56.563Z,29.80
2018-10-19T13:46:24.920Z,29.50
2018-10-19T13:48:53.365Z,29.20
2018-10-19T13:51:21.704Z,29.10
2018-10-19T13:53:50.031Z,29.30
2018-10-19T13:56:18.541Z,29.30
2018-10-19T13:58:46.886Z,29.20
2018-10-19T14:01:15.259Z,29.20
2018-10-19T14:03:43.597Z,29.10
2018-10-19T14:06:11.959Z,29.10
2018-10-19T14:08:40.281Z,29.10
2018-10-19T14:11:08.741Z,29.00
2018-10-19T14:13:37.191Z,29.00
2018-10-19T14:16:05.755Z,29.10
2018-10-19T14:18:34.065Z,29.20
2018-10-19T14:21:02.622Z,28.90
2018-10-19T14:23:30.909Z,29.00
2018-10-19T14:25:59.165Z,28.90
2018-10-19T14:28:27.590Z,28.80
2018-10-19T14:30:56.071Z,28.90
2018-10-19T14:33:24.561Z,28.80
2018-10-19T14:35:52.730Z,29.30
2018-10-19T14:38:21.060Z,28.90
2018-10-19T14:40:49.377Z,29.00
2018-10-19T14:43:17.745Z,28.90
2018-10-19T14:45:46.114Z,28.90
2018-10-19T14:48:14.461Z,28.60
2018-10-19T14:50:42.832Z,29.00
2018-10-19T14:53:11.249Z,28.70
2018-10-19T14:55:39.599Z,28.80
2018-10-19T14:58:07.913Z,28.80
2018-10-19T15:00:36.316Z,28.70
2018-10-19T15:03:04.784Z,28.90
2018-10-19T15:05:33.140Z,28.70
2018-10-19T15:08:01.495Z,28.80
2018-10-19T15:10:30.030Z,28.70
2018-10-19T15:12:58.157Z,28.80
2018-10-19T15:15:26.589Z,29.20
2018-10-19T15:17:54.905Z,28.90
2018-10-19T15:20:23.273Z,28.70
2018-10-19T15:22:51.599Z,28.60
2018-10-19T15:25:19.906Z,28.80
2018-10-19T15:27:49.009Z,28.60
2018-10-19T15:30:18.779Z,28.50
2018-10-19T15:32:47.041Z,28.60
2018-10-19T15:35:15.500Z,28.60
2018-10-19T15:37:43.934Z,28.60
2018-10-19T15:40:12.772Z,28.50
2018-10-19T15:42:41.105Z,28.50
2018-10-19T15:45:11.260Z,28.50
2018-10-19T15:47:39.467Z,28.30
2018-10-19T15:50:08.335Z,28.40
2018-10-19T15:52:36.801Z,28.40
2018-10-19T15:55:05.855Z,28.40
2018-10-19T15:57:34.269Z,28.40
2018-10-19T16:00:02.848Z,29.20
2018-10-19T16:02:31.235Z,29.80
2018-10-19T16:04:59.577Z,29.90
2018-10-19T16:07:28.000Z,29.80
2018-10-19T16:09:56.485Z,30.40
2018-10-19T16:12:24.889Z,30.60
2018-10-19T16:14:53.356Z,32.80
2018-10-19T16:17:21.679Z,35.60
2018-10-19T16:19:50.032Z,32.80
2018-10-19T16:22:18.390Z,34.20
2018-10-19T16:24:46.809Z,31.40
2018-10-19T16:27:15.396Z,30.00
2018-10-19T16:29:43.554Z,30.10
2018-10-19T16:32:11.995Z,30.10
2018-10-19T16:34:40.622Z,30.10
2018-10-19T16:37:08.909Z,31.20
2018-10-19T16:39:37.256Z,30.10
2018-10-19T16:42:05.678Z,30.10
2018-10-19T16:44:34.001Z,30.20
2018-10-19T16:47:02.408Z,30.20
2018-10-19T16:49:30.746Z,30.10
2018-10-19T16:51:59.165Z,30.00
2018-10-19T16:54:27.509Z,30.10
2018-10-19T16:56:55.908Z,30.20
2018-10-19T16:59:24.250Z,30.10
2018-10-19T17:01:52.669Z,30.10
2018-10-19T17:04:21.036Z,30.10
2018-10-19T17:06:49.322Z,30.10
2018-10-19T17:09:17.776Z,30.10
2018-10-19T17:11:46.210Z,30.00
2018-10-19T17:14:14.521Z,30.00
2018-10-19T17:16:42.884Z,30.00
2018-10-19T17:19:11.324Z,30.00
2018-10-19T17:21:39.853Z,30.20
2018-10-19T17:24:08.297Z,30.00
2018-10-19T17:26:36.724Z,30.00
2018-10-19T17:29:05.290Z,30.90
2018-10-19T17:31:33.701Z,31.00
2018-10-19T17:34:02.020Z,30.50
2018-10-19T17:36:30.402Z,30.70
2018-10-19T17:38:58.823Z,30.70
2018-10-19T17:41:27.089Z,31.60
2018-10-19T17:43:55.484Z,31.60
2018-10-19T17:46:23.831Z,31.60
2018-10-19T17:48:52.523Z,31.40
2018-10-19T17:51:20.899Z,31.30
2018-10-19T17:53:49.306Z,31.40
2018-10-19T17:56:17.608Z,31.50
2018-10-19T17:58:46.019Z,31.50
2018-10-19T18:01:14.379Z,31.70
2018-10-19T18:03:42.788Z,31.80
2018-10-19T18:06:11.273Z,31.80
2018-10-19T18:08:39.568Z,31.80
2018-10-19T18:11:07.973Z,31.90
2018-10-19T18:13:36.498Z,31.80
2018-10-19T18:16:05.109Z,32.00
2018-10-19T18:18:33.535Z,32.10
2018-10-19T18:21:02.046Z,32.00
2018-10-19T18:23:30.477Z,31.90
2018-10-19T18:25:58.795Z,32.10
2018-10-19T18:28:27.184Z,32.00
2018-10-19T18:30:55.485Z,31.90
2018-10-19T18:33:23.914Z,31.90
2018-10-19T18:35:52.624Z,32.10
2018-10-19T18:38:20.967Z,32.00
2018-10-19T18:40:49.274Z,32.10
2018-10-19T18:43:17.761Z,32.10
2018-10-19T18:45:46.179Z,32.10
2018-10-19T18:48:14.617Z,32.40
2018-10-19T18:50:43.130Z,32.10
2018-10-19T18:53:11.502Z,32.10
2018-10-19T18:55:39.792Z,32.10
2018-10-19T18:58:08.107Z,32.10
2018-10-19T19:00:36.691Z,32.10
2018-10-19T19:03:05.639Z,32.00
2018-10-19T19:05:33.961Z,32.10
2018-10-19T19:08:02.456Z,32.20
2018-10-19T19:10:30.744Z,32.20
2018-10-19T19:13:04.446Z,32.30
2018-10-19T19:15:32.727Z,32.20
2018-10-19T19:18:01.166Z,32.30
2018-10-19T19:20:30.510Z,32.30
2018-10-19T19:22:59.013Z,32.20
2018-10-19T19:25:32.802Z,32.40
2018-10-19T19:28:01.168Z,32.40
2018-10-19T19:30:29.659Z,32.50
2018-10-19T19:33:03.409Z,32.60
2018-10-19T19:35:31.828Z,32.60
2018-10-19T19:38:00.248Z,32.60
2018-10-19T19:40:28.615Z,32.60
2018-10-19T19:42:58.317Z,32.50
2018-10-19T19:45:26.717Z,32.60
2018-10-19T19:48:00.511Z,32.70
2018-10-19T19:50:28.786Z,32.60
2018-10-19T19:52:57.224Z,32.40
2018-10-19T19:55:25.716Z,32.60
2018-10-19T19:57:54.075Z,32.60
2018-10-19T20:00:22.401Z,32.70
2018-10-19T20:02:51.503Z,32.60
2018-10-19T20:05:19.825Z,32.80
2018-10-19T20:07:48.207Z,32.90
2018-10-19T20:10:16.522Z,32.80
2018-10-19T20:12:44.833Z,33.20
2018-10-19T20:15:13.257Z,33.20
2018-10-19T20:17:41.705Z,33.20
2018-10-19T20:20:11.923Z,33.30
2018-10-19T20:22:41.339Z,33.20
2018-10-19T20:25:10.928Z,33.80
2018-10-19T20:27:39.860Z,33.00
2018-10-19T20:30:11.815Z,33.20
2018-10-19T20:32:40.410Z,33.00
2018-10-19T20:35:09.114Z,33.10
2018-10-19T20:37:37.401Z,33.00
2018-10-19T20:40:05.945Z,32.90
2018-10-19T20:42:34.421Z,32.90
2018-10-19T20:45:02.988Z,33.10
2018-10-19T20:47:31.361Z,32.90
2018-10-19T20:49:59.759Z,33.00
2018-10-19T20:52:28.269Z,32.90
2018-10-19T20:54:56.595Z,32.90
2018-10-19T20:57:24.899Z,32.90
2018-10-19T20:59:53.347Z,32.80
2018-10-19T21:02:21.923Z,32.90
2018-10-19T21:04:50.347Z,32.80
2018-10-19T21:07:19.268Z,32.80
2018-10-19T21:09:47.701Z,32.80
2018-10-19T21:12:16.108Z,32.80
2018-10-19T21:14:44.438Z,32.80
2018-10-19T21:17:12.899Z,33.50
2018-10-19T21:19:41.268Z,32.90
2018-10-19T21:22:09.559Z,32.90
2018-10-19T21:24:37.999Z,33.00
2018-10-19T21:27:06.388Z,32.90
2018-10-19T21:29:34.744Z,32.80
2018-10-19T21:32:03.119Z,32.90
2018-10-19T21:34:31.566Z,33.80
2018-10-19T21:37:00.056Z,32.90
2018-10-19T21:39:28.424Z,33.00
2018-10-19T21:41:56.766Z,33.10
2018-10-19T21:44:25.092Z,33.00
2018-10-19T21:46:53.852Z,33.30
2018-10-19T21:49:22.115Z,33.10
2018-10-19T21:51:50.546Z,32.90
2018-10-19T21:54:18.889Z,32.90
2018-10-19T21:56:47.209Z,33.00
2018-10-19T21:59:15.575Z,33.10
2018-10-19T22:01:43.901Z,33.10
2018-10-19T22:04:12.268Z,33.30
2018-10-19T22:06:40.667Z,33.10
2018-10-19T22:09:11.076Z,33.90
2018-10-19T22:11:40.007Z,33.30
2018-10-19T22:14:09.156Z,33.30
2018-10-19T22:16:37.847Z,33.20
2018-10-19T22:19:06.919Z,33.20
2018-10-19T22:21:35.225Z,33.20
2018-10-19T22:24:03.566Z,33.40
2018-10-19T22:26:32.384Z,33.20
2018-10-19T22:29:00.888Z,33.20
2018-10-19T22:31:29.293Z,33.30
2018-10-19T22:33:57.700Z,33.30
2018-10-19T22:36:26.013Z,33.30
2018-10-19T22:38:54.579Z,33.50
2018-10-19T22:41:22.931Z,33.20
2018-10-19T22:43:51.757Z,33.30
2018-10-19T22:46:20.319Z,33.30
2018-10-19T22:48:48.897Z,33.30
2018-10-19T22:51:17.316Z,33.30
2018-10-19T22:53:45.757Z,33.40
2018-10-19T22:56:14.131Z,33.30
2018-10-19T22:58:42.496Z,33.30
2018-10-19T23:01:11.154Z,33.40
2018-10-19T23:03:40.442Z,33.40
2018-10-19T23:06:08.730Z,33.40
2018-10-19T23:08:37.079Z,33.40
2018-10-19T23:11:05.680Z,33.40
2018-10-19T23:13:34.088Z,33.70
2018-10-19T23:16:02.575Z,33.50
2018-10-19T23:18:30.902Z,33.60
2018-10-19T23:20:59.361Z,33.60
2018-10-19T23:23:27.799Z,33.60
2018-10-19T23:25:56.150Z,33.60
2018-10-19T23:28:24.480Z,34.00
2018-10-19T23:30:52.838Z,33.50
2018-10-19T23:33:21.131Z,33.40
2018-10-19T23:35:49.523Z,33.40
2018-10-19T23:38:17.837Z,33.50
2018-10-19T23:40:46.151Z,33.40
2018-10-19T23:43:14.493Z,33.40
2018-10-19T23:45:42.706Z,33.50
2018-10-19T23:48:11.011Z,33.30
2018-10-19T23:50:39.466Z,33.30
2018-10-19T23:53:08.000Z,33.20
2018-10-19T23:55:36.354Z,33.30
2018-10-19T23:58:04.891Z,33.30
